CheckWX is a tool to help pilots better visualize weather data.  It is not intended as a substitute for an official pre-flight weather briefing.

14:47:13 UTC

SAEZ TAF
Ministro Pistarini International Airport
Buenos Aires, Argentina
TAF SAEZ 231100Z 2312/2412 30005KT CAVOK TX25/2318Z TN14/2410Z BECMG 2313/2315 35010KT 9999 BECMG 2404/2406 21010KT 9999 SCT050 PROB30 TEMPO 2408/2411 5000 BR SCT015

Mar-23@
12:00 UTC

Mar-23 @ 12:00 UTC

Mar-23@
13:00 UTC

Mar-23 @ 13:00 UTC

TAF SAEZ 231100Z 2312/2412 30005KT CAVOK TX25/2318Z TN14/2410Z

Expired

Wind
  • 300° at 5 KTS
Cloud Levels
  • No significant clouds

Mar-23@
13:00 UTC

Mar-23 @ 13:00 UTC

Mar-24@
04:00 UTC

Mar-24 @ 04:00 UTC

BECMG 2313/2315 35010KT 9999

Becoming

Becoming Conditions expected by Sat, Mar 23, 2019 @ 15:00 UTC

Wind
  • 350° at 10 KTS
Cloud Levels
  • No significant clouds

Mar-24@
04:00 UTC

Mar-24 @ 04:00 UTC

Mar-24@
12:00 UTC

Mar-24 @ 12:00 UTC

BECMG 2404/2406 21010KT 9999 SCT050

Becoming

Becoming Conditions expected by Sun, Mar 24, 2019 @ 06:00 UTC

Wind
  • 210° at 10 KTS
Cloud Levels
  • Scattered at 5,000' AGL

Mar-24@
08:00 UTC

Mar-24 @ 08:00 UTC

Mar-24@
11:00 UTC

Mar-24 @ 11:00 UTC

PROB30 TEMPO 2408/2411 5000 BR SCT015

Temporary - 30% Likelihood

Temporary - 30% Likelihood during this time.

Conditions
Mist
Cloud Levels
  • Scattered at 1,500' AGL